sensor_id;sensor_type;location;lat;lon;timestamp;pressure;altitude;pressure_sealevel;temperature;humidity
51468;BME280;37545;45.302;-122.946;2023-09-30T00:01:08;100385.81;;;18.23;61.60
51468;BME280;37545;45.302;-122.946;2023-09-30T00:03:38;100391.94;;;18.22;63.71
51468;BME280;37545;45.302;-122.946;2023-09-30T00:06:08;100384.97;;;18.18;65.45
51468;BME280;37545;45.302;-122.946;2023-09-30T00:08:37;100378.91;;;18.11;64.41
51468;BME280;37545;45.302;-122.946;2023-09-30T00:11:06;100389.38;;;18.17;65.52
51468;BME280;37545;45.302;-122.946;2023-09-30T00:13:36;100387.66;;;18.10;64.15
51468;BME280;37545;45.302;-122.946;2023-09-30T00:16:06;100392.03;;;18.10;66.15
51468;BME280;37545;45.302;-122.946;2023-09-30T00:18:35;100392.03;;;18.08;65.39
51468;BME280;37545;45.302;-122.946;2023-09-30T00:21:04;100388.59;;;18.00;65.76
51468;BME280;37545;45.302;-122.946;2023-09-30T00:23:32;100391.28;;;17.94;64.00
51468;BME280;37545;45.302;-122.946;2023-09-30T00:26:01;100390.41;;;17.92;63.53
51468;BME280;37545;45.302;-122.946;2023-09-30T00:28:29;100389.56;;;17.88;63.55
51468;BME280;37545;45.302;-122.946;2023-09-30T00:30:58;100389.59;;;17.87;63.49
51468;BME280;37545;45.302;-122.946;2023-09-30T00:33:28;100398.28;;;17.84;63.17
51468;BME280;37545;45.302;-122.946;2023-09-30T00:35:57;100394.81;;;17.80;61.94
51468;BME280;37545;45.302;-122.946;2023-09-30T00:38:26;100407.03;;;17.80;63.20
51468;BME280;37545;45.302;-122.946;2023-09-30T00:40:55;100400.94;;;17.75;63.35
51468;BME280;37545;45.302;-122.946;2023-09-30T00:43:23;100402.69;;;17.73;63.18
51468;BME280;37545;45.302;-122.946;2023-09-30T00:45:54;100402.72;;;17.70;63.39
51468;BME280;37545;45.302;-122.946;2023-09-30T00:48:28;100405.34;;;17.65;64.84
51468;BME280;37545;45.302;-122.946;2023-09-30T00:50:57;100408.88;;;17.59;64.08
51468;BME280;37545;45.302;-122.946;2023-09-30T00:53:34;100410.63;;;17.56;66.19
51468;BME280;37545;45.302;-122.946;2023-09-30T00:56:03;100409.78;;;17.55;70.25
51468;BME280;37545;45.302;-122.946;2023-09-30T00:58:36;100407.16;;;17.54;70.20
51468;BME280;37545;45.302;-122.946;2023-09-30T01:01:06;100410.63;;;17.54;70.03
51468;BME280;37545;45.302;-122.946;2023-09-30T01:03:37;100408.09;;;17.44;69.38
51468;BME280;37545;45.302;-122.946;2023-09-30T01:06:06;100408.06;;;17.48;71.57
51468;BME280;37545;45.302;-122.946;2023-09-30T01:08:36;100414.16;;;17.49;71.69
51468;BME280;37545;45.302;-122.946;2023-09-30T01:11:05;100408.94;;;17.44;71.47
51468;BME280;37545;45.302;-122.946;2023-09-30T01:13:35;100414.19;;;17.44;70.94
51468;BME280;37545;45.302;-122.946;2023-09-30T01:16:04;100418.53;;;17.44;70.23
51468;BME280;37545;45.302;-122.946;2023-09-30T01:18:39;100415.94;;;17.44;71.63
51468;BME280;37545;45.302;-122.946;2023-09-30T01:21:09;100425.53;;;17.43;75.20
51468;BME280;37545;45.302;-122.946;2023-09-30T01:23:40;100419.44;;;17.41;74.71
51468;BME280;37545;45.302;-122.946;2023-09-30T01:26:11;100410.69;;;17.41;73.78
51468;BME280;37545;45.302;-122.946;2023-09-30T01:28:40;100415.09;;;17.38;72.10
51468;BME280;37545;45.302;-122.946;2023-09-30T01:31:10;100414.22;;;17.35;72.38
51468;BME280;37545;45.302;-122.946;2023-09-30T01:33:38;100412.47;;;17.35;72.58
51468;BME280;37545;45.302;-122.946;2023-09-30T01:36:07;100417.72;;;17.32;72.01
51468;BME280;37545;45.302;-122.946;2023-09-30T01:38:35;100416.84;;;17.29;73.01
51468;BME280;37545;45.302;-122.946;2023-09-30T01:41:06;100412.50;;;17.26;72.49
51468;BME280;37545;45.302;-122.946;2023-09-30T01:43:34;100405.56;;;17.21;71.52
51468;BME280;37545;45.302;-122.946;2023-09-30T01:46:04;100405.56;;;17.19;70.43
51468;BME280;37545;45.302;-122.946;2023-09-30T01:48:33;100411.66;;;17.21;71.00
51468;BME280;37545;45.302;-122.946;2023-09-30T01:51:01;100415.13;;;17.20;71.65
51468;BME280;37545;45.302;-122.946;2023-09-30T01:53:32;100416.00;;;17.17;71.83
51468;BME280;37545;45.302;-122.946;2023-09-30T01:56:01;100415.16;;;17.14;71.56
51468;BME280;37545;45.302;-122.946;2023-09-30T01:58:31;100417.75;;;17.11;71.07
51468;BME280;37545;45.302;-122.946;2023-09-30T02:01:02;100414.31;;;17.09;70.43
51468;BME280;37545;45.302;-122.946;2023-09-30T02:03:31;100407.34;;;17.05;70.57
51468;BME280;37545;45.302;-122.946;2023-09-30T02:06:00;100412.56;;;17.02;72.21
51468;BME280;37545;45.302;-122.946;2023-09-30T02:08:30;100414.34;;;17.00;71.67
51468;BME280;37545;45.302;-122.946;2023-09-30T02:10:58;100404.75;;;16.92;72.20
51468;BME280;37545;45.302;-122.946;2023-09-30T02:13:27;100405.63;;;16.93;72.83
51468;BME280;37545;45.302;-122.946;2023-09-30T02:15:57;100408.25;;;16.88;72.62
51468;BME280;37545;45.302;-122.946;2023-09-30T02:18:26;100404.75;;;16.83;72.87
51468;BME280;37545;45.302;-122.946;2023-09-30T02:20:55;100403.00;;;16.76;71.59
51468;BME280;37545;45.302;-122.946;2023-09-30T02:23:23;100414.34;;;16.81;71.01
51468;BME280;37545;45.302;-122.946;2023-09-30T02:25:51;100416.94;;;16.76;70.26
51468;BME280;37545;45.302;-122.946;2023-09-30T02:28:23;100414.31;;;16.76;70.80
51468;BME280;37545;45.302;-122.946;2023-09-30T02:30:52;100410.84;;;16.73;71.81
51468;BME280;37545;45.302;-122.946;2023-09-30T02:33:22;100416.94;;;16.70;70.81
51468;BME280;37545;45.302;-122.946;2023-09-30T02:35:52;100415.22;;;16.66;71.69
51468;BME280;37545;45.302;-122.946;2023-09-30T02:38:20;100423.03;;;16.65;75.46
51468;BME280;37545;45.302;-122.946;2023-09-30T02:40:49;100416.97;;;16.61;72.16
51468;BME280;37545;45.302;-122.946;2023-09-30T02:43:18;100423.06;;;16.59;70.95
51468;BME280;37545;45.302;-122.946;2023-09-30T02:45:48;100426.53;;;16.58;71.34
51468;BME280;37545;45.302;-122.946;2023-09-30T02:48:16;100419.56;;;16.57;71.15
51468;BME280;37545;45.302;-122.946;2023-09-30T02:50:50;100421.31;;;16.54;71.45
51468;BME280;37545;45.302;-122.946;2023-09-30T02:53:19;100430.00;;;16.53;72.27
51468;BME280;37545;45.302;-122.946;2023-09-30T02:55:48;100430.91;;;16.54;71.29
51468;BME280;37545;45.302;-122.946;2023-09-30T02:58:22;100445.69;;;16.53;69.70
51468;BME280;37545;45.302;-122.946;2023-09-30T03:00:51;100437.00;;;16.54;72.44
51468;BME280;37545;45.302;-122.946;2023-09-30T03:03:20;100436.13;;;16.54;76.77
51468;BME280;37545;45.302;-122.946;2023-09-30T03:05:50;100438.72;;;16.52;76.35
51468;BME280;37545;45.302;-122.946;2023-09-30T03:08:19;100443.06;;;16.49;76.46
51468;BME280;37545;45.302;-122.946;2023-09-30T03:10:49;100440.44;;;16.44;75.83
51468;BME280;37545;45.302;-122.946;2023-09-30T03:13:18;100445.69;;;16.41;73.05
51468;BME280;37545;45.302;-122.946;2023-09-30T03:15:48;100442.19;;;16.39;70.92
51468;BME280;37545;45.302;-122.946;2023-09-30T03:18:19;100444.78;;;16.38;73.64
51468;BME280;37545;45.302;-122.946;2023-09-30T03:20:58;100450.88;;;16.35;70.85
51468;BME280;37545;45.302;-122.946;2023-09-30T03:23:28;100443.06;;;16.29;73.31
51468;BME280;37545;45.302;-122.946;2023-09-30T03:25:57;100448.28;;;16.29;76.62
51468;BME280;37545;45.302;-122.946;2023-09-30T03:28:26;100449.16;;;16.25;73.62
51468;BME280;37545;45.302;-122.946;2023-09-30T03:30:55;100451.75;;;16.23;78.57
51468;BME280;37545;45.302;-122.946;2023-09-30T03:33:27;100455.22;;;16.19;81.60
51468;BME280;37545;45.302;-122.946;2023-09-30T03:35:57;100451.72;;;16.08;79.83
51468;BME280;37545;45.302;-122.946;2023-09-30T03:38:26;100450.84;;;16.04;82.62
51468;BME280;37545;45.302;-122.946;2023-09-30T03:40:55;100457.81;;;15.99;85.11
51468;BME280;37545;45.302;-122.946;2023-09-30T03:43:25;100455.16;;;15.88;83.12
51468;BME280;37545;45.302;-122.946;2023-09-30T03:45:54;100462.06;;;15.80;84.65
51468;BME280;37545;45.302;-122.946;2023-09-30T03:48:23;100470.78;;;15.75;88.06
51468;BME280;37545;45.302;-122.946;2023-09-30T03:50:53;100472.44;;;15.66;89.86
51468;BME280;37545;45.302;-122.946;2023-09-30T03:53:23;100466.31;;;15.58;91.11
51468;BME280;37545;45.302;-122.946;2023-09-30T03:55:53;100472.38;;;15.53;92.89
51468;BME280;37545;45.302;-122.946;2023-09-30T03:58:21;100471.47;;;15.43;91.01
51468;BME280;37545;45.302;-122.946;2023-09-30T04:00:50;100467.97;;;15.39;94.29
51468;BME280;37545;45.302;-122.946;2023-09-30T04:03:20;100474.00;;;15.32;87.09
51468;BME280;37545;45.302;-122.946;2023-09-30T04:05:49;100480.94;;;15.27;93.00
51468;BME280;37545;45.302;-122.946;2023-09-30T04:08:18;100482.63;;;15.20;94.77
51468;BME280;37545;45.302;-122.946;2023-09-30T04:10:50;100473.91;;;15.15;95.36
51468;BME280;37545;45.302;-122.946;2023-09-30T04:13:18;100477.34;;;15.11;96.28
51468;BME280;37545;45.302;-122.946;2023-09-30T04:15:48;100474.75;;;15.08;98.36
51468;BME280;37545;45.302;-122.946;2023-09-30T04:18:17;100475.56;;;15.02;97.67
51468;BME280;37545;45.302;-122.946;2023-09-30T04:20:48;100472.91;;;14.95;94.44
51468;BME280;37545;45.302;-122.946;2023-09-30T04:23:18;100479.81;;;14.91;96.14
51468;BME280;37545;45.302;-122.946;2023-09-30T04:25:50;100478.94;;;14.87;97.78
51468;BME280;37545;45.302;-122.946;2023-09-30T04:28:19;100485.84;;;14.84;99.14
51468;BME280;37545;45.302;-122.946;2023-09-30T04:30:49;100476.25;;;14.77;98.58
51468;BME280;37545;45.302;-122.946;2023-09-30T04:33:18;100474.50;;;14.74;100.00
51468;BME280;37545;45.302;-122.946;2023-09-30T04:35:48;100479.69;;;14.71;100.00
51468;BME280;37545;45.302;-122.946;2023-09-30T04:38:18;100478.81;;;14.72;100.00
51468;BME280;37545;45.302;-122.946;2023-09-30T04:40:47;100467.47;;;14.65;100.00
51468;BME280;37545;45.302;-122.946;2023-09-30T04:43:19;100490.97;;;14.72;100.00
51468;BME280;37545;45.302;-122.946;2023-09-30T04:45:48;100488.31;;;14.67;100.00
51468;BME280;37545;45.302;-122.946;2023-09-30T04:48:20;100484.81;;;14.62;100.00
51468;BME280;37545;45.302;-122.946;2023-09-30T04:50:48;100489.09;;;14.58;100.00
51468;BME280;37545;45.302;-122.946;2023-09-30T04:53:17;100489.97;;;14.59;100.00
51468;BME280;37545;45.302;-122.946;2023-09-30T04:55:46;100494.34;;;14.60;100.00
51468;BME280;37545;45.302;-122.946;2023-09-30T04:58:22;100494.31;;;14.55;100.00
51468;BME280;37545;45.302;-122.946;2023-09-30T05:00:50;100495.16;;;14.56;100.00
51468;BME280;37545;45.302;-122.946;2023-09-30T05:03:19;100498.63;;;14.55;100.00
51468;BME280;37545;45.302;-122.946;2023-09-30T05:05:48;100500.38;;;14.56;100.00
51468;BME280;37545;45.302;-122.946;2023-09-30T05:08:16;100502.13;;;14.57;98.15
51468;BME280;37545;45.302;-122.946;2023-09-30T05:10:47;100499.53;;;14.58;100.00
51468;BME280;37545;45.302;-122.946;2023-09-30T05:13:16;100509.09;;;14.61;100.00
51468;BME280;37545;45.302;-122.946;2023-09-30T05:15:47;100495.16;;;14.56;98.50
51468;BME280;37545;45.302;-122.946;2023-09-30T05:18:27;100502.13;;;14.57;98.49
51468;BME280;37545;45.302;-122.946;2023-09-30T05:20:56;100509.06;;;14.58;99.10
51468;BME280;37545;45.302;-122.946;2023-09-30T05:23:25;100494.25;;;14.54;97.03
51468;BME280;37545;45.302;-122.946;2023-09-30T05:25:58;100503.84;;;14.55;94.56
51468;BME280;37545;45.302;-122.946;2023-09-30T05:28:27;100504.66;;;14.54;93.01
51468;BME280;37545;45.302;-122.946;2023-09-30T05:30:58;100505.53;;;14.53;95.51
51468;BME280;37545;45.302;-122.946;2023-09-30T05:33:26;100506.38;;;14.52;97.68
51468;BME280;37545;45.302;-122.946;2023-09-30T05:35:55;100506.31;;;14.47;91.59
51468;BME280;37545;45.302;-122.946;2023-09-30T05:38:24;100509.78;;;14.48;95.76
51468;BME280;37545;45.302;-122.946;2023-09-30T05:40:53;100501.13;;;14.45;94.06
51468;BME280;37545;45.302;-122.946;2023-09-30T05:43:21;100506.28;;;14.41;91.13
51468;BME280;37545;45.302;-122.946;2023-09-30T05:45:50;100508.88;;;14.39;90.35
51468;BME280;37545;45.302;-122.946;2023-09-30T05:48:22;100509.72;;;14.40;92.02
51468;BME280;37545;45.302;-122.946;2023-09-30T05:50:51;100511.47;;;14.39;92.36
51468;BME280;37545;45.302;-122.946;2023-09-30T05:53:22;100515.78;;;14.37;90.58
51468;BME280;37545;45.302;-122.946;2023-09-30T05:55:51;100514.06;;;14.36;90.50
51468;BME280;37545;45.302;-122.946;2023-09-30T05:58:20;100510.56;;;14.36;92.70
51468;BME280;37545;45.302;-122.946;2023-09-30T06:00:50;100501.81;;;14.29;93.76
51468;BME280;37545;45.302;-122.946;2023-09-30T06:03:19;100510.50;;;14.31;96.55
51468;BME280;37545;45.302;-122.946;2023-09-30T06:05:50;100513.97;;;14.27;91.47
51468;BME280;37545;45.302;-122.946;2023-09-30T06:08:19;100503.56;;;14.27;92.98
51468;BME280;37545;45.302;-122.946;2023-09-30T06:10:48;100506.16;;;14.29;95.35
51468;BME280;37545;45.302;-122.946;2023-09-30T06:13:16;100513.97;;;14.27;94.09
51468;BME280;37545;45.302;-122.946;2023-09-30T06:15:45;100501.75;;;14.23;93.79
51468;BME280;37545;45.302;-122.946;2023-09-30T06:18:14;100511.31;;;14.24;95.55
51468;BME280;37545;45.302;-122.946;2023-09-30T06:20:42;100516.47;;;14.21;96.05
51468;BME280;37545;45.302;-122.946;2023-09-30T06:23:13;100512.13;;;14.18;97.28
51468;BME280;37545;45.302;-122.946;2023-09-30T06:25:42;100510.34;;;14.14;96.52
51468;BME280;37545;45.302;-122.946;2023-09-30T06:28:11;100515.50;;;14.13;96.28
51468;BME280;37545;45.302;-122.946;2023-09-30T06:30:40;100516.38;;;14.12;96.47
51468;BME280;37545;45.302;-122.946;2023-09-30T06:33:12;100516.34;;;14.10;94.92
51468;BME280;37545;45.302;-122.946;2023-09-30T06:35:42;100511.97;;;14.04;92.46
51468;BME280;37545;45.302;-122.946;2023-09-30T06:38:19;100513.69;;;14.06;91.71
51468;BME280;37545;45.302;-122.946;2023-09-30T06:40:47;100505.88;;;14.04;92.81
51468;BME280;37545;45.302;-122.946;2023-09-30T06:43:16;100511.97;;;14.04;93.73
51468;BME280;37545;45.302;-122.946;2023-09-30T06:45:48;100516.28;;;14.04;95.00
51468;BME280;37545;45.302;-122.946;2023-09-30T06:48:17;100518.00;;;14.03;95.87
51468;BME280;37545;45.302;-122.946;2023-09-30T06:50:46;100523.16;;;13.99;94.26
51468;BME280;37545;45.302;-122.946;2023-09-30T06:53:15;100525.72;;;13.94;93.13
51468;BME280;37545;45.302;-122.946;2023-09-30T06:55:45;100533.53;;;13.93;93.61
51468;BME280;37545;45.302;-122.946;2023-09-30T06:58:14;100523.94;;;13.92;92.28
51468;BME280;37545;45.302;-122.946;2023-09-30T07:00:47;100519.56;;;13.88;89.39
51468;BME280;37545;45.302;-122.946;2023-09-30T07:03:17;100523.88;;;13.84;87.91
51468;BME280;37545;45.302;-122.946;2023-09-30T07:05:46;100529.00;;;13.81;90.46
51468;BME280;37545;45.302;-122.946;2023-09-30T07:08:16;100519.44;;;13.78;89.71
51468;BME280;37545;45.302;-122.946;2023-09-30T07:10:47;100522.91;;;13.77;89.80
51468;BME280;37545;45.302;-122.946;2023-09-30T07:13:19;100523.75;;;13.75;89.92
51468;BME280;37545;45.302;-122.946;2023-09-30T07:15:47;100522.88;;;13.74;90.92
51468;BME280;37545;45.302;-122.946;2023-09-30T07:18:17;100522.88;;;13.76;92.35
51468;BME280;37545;45.302;-122.946;2023-09-30T07:20:45;100523.75;;;13.75;95.20
51468;BME280;37545;45.302;-122.946;2023-09-30T07:23:14;100530.66;;;13.73;92.94
51468;BME280;37545;45.302;-122.946;2023-09-30T07:25:42;100525.44;;;13.71;92.61
51468;BME280;37545;45.302;-122.946;2023-09-30T07:28:12;100522.78;;;13.70;93.65
51468;BME280;37545;45.302;-122.946;2023-09-30T07:30:41;100531.50;;;13.70;94.17
51468;BME280;37545;45.302;-122.946;2023-09-30T07:33:10;100539.25;;;13.69;92.27
51468;BME280;37545;45.302;-122.946;2023-09-30T07:35:39;100530.53;;;13.65;90.64
51468;BME280;37545;45.302;-122.946;2023-09-30T07:38:07;100531.38;;;13.61;87.89
51468;BME280;37545;45.302;-122.946;2023-09-30T07:40:36;100531.38;;;13.62;87.57
51468;BME280;37545;45.302;-122.946;2023-09-30T07:43:04;100535.72;;;13.64;87.79
51468;BME280;37545;45.302;-122.946;2023-09-30T07:45:35;100535.72;;;13.64;91.33
51468;BME280;37545;45.302;-122.946;2023-09-30T07:48:07;100529.63;;;13.61;91.15
51468;BME280;37545;45.302;-122.946;2023-09-30T07:50:36;100540.94;;;13.64;91.19
51468;BME280;37545;45.302;-122.946;2023-09-30T07:53:08;100538.34;;;13.65;91.98
51468;BME280;37545;45.302;-122.946;2023-09-30T07:55:38;100549.56;;;13.62;89.27
51468;BME280;37545;45.302;-122.946;2023-09-30T07:58:07;100541.78;;;13.62;89.11
51468;BME280;37545;45.302;-122.946;2023-09-30T08:00:37;100542.66;;;13.65;88.12
51468;BME280;37545;45.302;-122.946;2023-09-30T08:03:06;100545.25;;;13.65;87.20
51468;BME280;37545;45.302;-122.946;2023-09-30T08:05:35;100542.69;;;13.66;87.15
51468;BME280;37545;45.302;-122.946;2023-09-30T08:08:04;100534.81;;;13.58;89.29
51468;BME280;37545;45.302;-122.946;2023-09-30T08:10:32;100545.25;;;13.65;88.92
51468;BME280;37545;45.302;-122.946;2023-09-30T08:13:03;100553.94;;;13.64;90.54
51468;BME280;37545;45.302;-122.946;2023-09-30T08:15:41;100551.34;;;13.64;89.00
51468;BME280;37545;45.302;-122.946;2023-09-30T08:18:09;100555.63;;;13.61;87.94
51468;BME280;37545;45.302;-122.946;2023-09-30T08:20:47;100559.94;;;13.59;88.07
51468;BME280;37545;45.302;-122.946;2023-09-30T08:23:15;100562.50;;;13.58;88.10
51468;BME280;37545;45.302;-122.946;2023-09-30T08:25:44;100560.75;;;13.54;85.15
51468;BME280;37545;45.302;-122.946;2023-09-30T08:28:13;100565.94;;;13.54;86.65
51468;BME280;37545;45.302;-122.946;2023-09-30T08:30:43;100566.75;;;13.51;86.14
51468;BME280;37545;45.302;-122.946;2023-09-30T08:33:12;100569.34;;;13.51;86.25
51468;BME280;37545;45.302;-122.946;2023-09-30T08:35:42;100570.19;;;13.50;85.60
51468;BME280;37545;45.302;-122.946;2023-09-30T08:38:10;100572.81;;;13.50;85.45
51468;BME280;37545;45.302;-122.946;2023-09-30T08:40:39;100572.81;;;13.50;87.01
51468;BME280;37545;45.302;-122.946;2023-09-30T08:43:11;100583.16;;;13.49;85.79
51468;BME280;37545;45.302;-122.946;2023-09-30T08:45:42;100584.88;;;13.47;86.46
51468;BME280;37545;45.302;-122.946;2023-09-30T08:48:12;100579.63;;;13.44;86.27
51468;BME280;37545;45.302;-122.946;2023-09-30T08:50:41;100583.09;;;13.44;85.99
51468;BME280;37545;45.302;-122.946;2023-09-30T08:53:11;100584.78;;;13.42;84.85
51468;BME280;37545;45.302;-122.946;2023-09-30T08:55:43;100589.13;;;13.41;85.29
51468;BME280;37545;45.302;-122.946;2023-09-30T08:58:14;100596.06;;;13.41;86.63
51468;BME280;37545;45.302;-122.946;2023-09-30T09:00:45;100593.44;;;13.39;84.96
51468;BME280;37545;45.302;-122.946;2023-09-30T09:03:21;100590.81;;;13.38;83.21
51468;BME280;37545;45.302;-122.946;2023-09-30T09:05:54;100595.13;;;13.36;82.80
51468;BME280;37545;45.302;-122.946;2023-09-30T09:08:24;100592.50;;;13.34;84.38
51468;BME280;37545;45.302;-122.946;2023-09-30T09:10:59;100593.34;;;13.33;83.39
51468;BME280;37545;45.302;-122.946;2023-09-30T09:13:47;100589.84;;;13.33;83.51
51468;BME280;37545;45.302;-122.946;2023-09-30T09:16:18;100594.16;;;13.31;85.40
51468;BME280;37545;45.302;-122.946;2023-09-30T09:18:47;100594.13;;;13.28;87.60
51468;BME280;37545;45.302;-122.946;2023-09-30T09:21:17;100590.53;;;13.23;89.09
51468;BME280;37545;45.302;-122.946;2023-09-30T09:23:47;100595.75;;;13.23;89.16
51468;BME280;37545;45.302;-122.946;2023-09-30T09:26:25;100590.50;;;13.21;88.82
51468;BME280;37545;45.302;-122.946;2023-09-30T09:28:57;100595.69;;;13.19;87.03
51468;BME280;37545;45.302;-122.946;2023-09-30T09:31:28;100595.63;;;13.16;87.63
51468;BME280;37545;45.302;-122.946;2023-09-30T09:33:57;100594.72;;;13.13;87.76
51468;BME280;37545;45.302;-122.946;2023-09-30T09:36:38;100589.50;;;13.11;85.67
51468;BME280;37545;45.302;-122.946;2023-09-30T09:39:08;100593.78;;;13.09;84.61
51468;BME280;37545;45.302;-122.946;2023-09-30T09:41:50;100588.59;;;13.09;80.93
51468;BME280;37545;45.302;-122.946;2023-09-30T09:44:20;100594.66;;;13.08;83.19
51468;BME280;37545;45.302;-122.946;2023-09-30T09:46:51;100585.09;;;13.07;83.92
51468;BME280;37545;45.302;-122.946;2023-09-30T09:49:22;100591.09;;;13.05;80.60
51468;BME280;37545;45.302;-122.946;2023-09-30T09:51:52;100588.44;;;13.00;81.78
51468;BME280;37545;45.302;-122.946;2023-09-30T09:54:23;100589.34;;;13.02;82.98
51468;BME280;37545;45.302;-122.946;2023-09-30T09:56:53;100591.94;;;13.02;82.49
51468;BME280;37545;45.302;-122.946;2023-09-30T09:59:27;100590.09;;;12.95;82.24
51468;BME280;37545;45.302;-122.946;2023-09-30T10:01:59;100595.31;;;12.98;83.55
51468;BME280;37545;45.302;-122.946;2023-09-30T10:04:30;100598.78;;;12.97;83.44
51468;BME280;37545;45.302;-122.946;2023-09-30T10:06:59;100596.19;;;12.97;82.60
51468;BME280;37545;45.302;-122.946;2023-09-30T10:09:33;100602.22;;;12.96;81.40
51468;BME280;37545;45.302;-122.946;2023-09-30T10:12:03;100599.59;;;12.94;81.64
51468;BME280;37545;45.302;-122.946;2023-09-30T10:14:35;100597.84;;;12.92;81.98
51468;BME280;37545;45.302;-122.946;2023-09-30T10:17:09;100600.34;;;12.89;82.34
51468;BME280;37545;45.302;-122.946;2023-09-30T10:20:03;100593.34;;;12.85;82.61
51468;BME280;37545;45.302;-122.946;2023-09-30T10:22:34;100596.81;;;12.84;82.74
51468;BME280;37545;45.302;-122.946;2023-09-30T10:25:35;100594.13;;;12.79;83.23
51468;BME280;37545;45.302;-122.946;2023-09-30T10:28:32;100596.66;;;12.74;83.41
51468;BME280;37545;45.302;-122.946;2023-09-30T10:31:16;100590.47;;;12.68;83.26
51468;BME280;37545;45.302;-122.946;2023-09-30T10:34:21;100599.13;;;12.67;82.99
51468;BME280;37545;45.302;-122.946;2023-09-30T10:36:50;100592.97;;;12.63;82.72
51468;BME280;37545;45.302;-122.946;2023-09-30T10:42:46;100598.88;;;12.54;84.10
51468;BME280;37545;45.302;-122.946;2023-09-30T10:45:43;100599.72;;;12.53;83.78
51468;BME280;37545;45.302;-122.946;2023-09-30T10:48:35;100611.84;;;12.53;85.71
51468;BME280;37545;45.302;-122.946;2023-09-30T10:51:18;100604.84;;;12.50;84.84
51468;BME280;37545;45.302;-122.946;2023-09-30T10:53:52;100608.25;;;12.48;85.85
51468;BME280;37545;45.302;-122.946;2023-09-30T10:56:23;100616.81;;;12.44;86.38
51468;BME280;37545;45.302;-122.946;2023-09-30T10:58:54;100611.63;;;12.44;86.49
51468;BME280;37545;45.302;-122.946;2023-09-30T11:01:23;100616.78;;;12.41;86.06
51468;BME280;37545;45.302;-122.946;2023-09-30T11:04:01;100608.13;;;12.40;86.47
51468;BME280;37545;45.302;-122.946;2023-09-30T11:06:33;100617.63;;;12.41;86.65
51468;BME280;37545;45.302;-122.946;2023-09-30T11:09:14;100614.16;;;12.41;86.46
51468;BME280;37545;45.302;-122.946;2023-09-30T11:11:44;100622.00;;;12.42;86.96
51468;BME280;37545;45.302;-122.946;2023-09-30T11:14:22;100618.44;;;12.39;86.29
51468;BME280;37545;45.302;-122.946;2023-09-30T11:16:54;100627.09;;;12.38;86.09
51468;BME280;37545;45.302;-122.946;2023-09-30T11:19:23;100627.09;;;12.38;86.38
51468;BME280;37545;45.302;-122.946;2023-09-30T11:21:54;100626.25;;;12.39;85.09
51468;BME280;37545;45.302;-122.946;2023-09-30T11:24:24;100638.34;;;12.38;85.53
51468;BME280;37545;45.302;-122.946;2023-09-30T11:26:55;100638.34;;;12.38;84.77
51468;BME280;37545;45.302;-122.946;2023-09-30T11:29:24;100640.06;;;12.38;85.83
51468;BME280;37545;45.302;-122.946;2023-09-30T11:31:55;100635.72;;;12.36;87.19
51468;BME280;37545;45.302;-122.946;2023-09-30T11:34:32;100640.81;;;12.32;87.16
51468;BME280;37545;45.302;-122.946;2023-09-30T11:37:03;100633.84;;;12.29;87.66
51468;BME280;37545;45.302;-122.946;2023-09-30T11:39:32;100642.47;;;12.28;86.27
51468;BME280;37545;45.302;-122.946;2023-09-30T11:42:00;100637.28;;;12.28;85.49
51468;BME280;37545;45.302;-122.946;2023-09-30T11:44:31;100640.66;;;12.24;85.44
51468;BME280;37545;45.302;-122.946;2023-09-30T11:47:03;100644.06;;;12.22;87.89
51468;BME280;37545;45.302;-122.946;2023-09-30T11:49:33;100640.53;;;12.18;87.06
51468;BME280;37545;45.302;-122.946;2023-09-30T11:52:07;100647.47;;;12.19;87.18
51468;BME280;37545;45.302;-122.946;2023-09-30T11:54:40;100650.03;;;12.18;88.75
51468;BME280;37545;45.302;-122.946;2023-09-30T11:57:10;100660.34;;;12.14;87.86
51468;BME280;37545;45.302;-122.946;2023-09-30T11:59:41;100662.91;;;12.13;88.00
51468;BME280;37545;45.302;-122.946;2023-09-30T12:02:13;100661.16;;;12.12;89.36
51468;BME280;37545;45.302;-122.946;2023-09-30T12:04:42;100662.84;;;12.10;89.23
51468;BME280;37545;45.302;-122.946;2023-09-30T12:07:13;100661.94;;;12.09;88.69
51468;BME280;37545;45.302;-122.946;2023-09-30T12:09:41;100660.25;;;12.10;87.88
51468;BME280;37545;45.302;-122.946;2023-09-30T12:12:10;100659.38;;;12.11;87.71
51468;BME280;37545;45.302;-122.946;2023-09-30T12:14:40;100658.47;;;12.07;87.73
51468;BME280;37545;45.302;-122.946;2023-09-30T12:17:09;100647.91;;;11.98;87.49
51468;BME280;37545;45.302;-122.946;2023-09-30T12:19:44;100659.19;;;12.02;87.21
51468;BME280;37545;45.302;-122.946;2023-09-30T12:22:17;100659.94;;;11.96;87.38
51468;BME280;37545;45.302;-122.946;2023-09-30T12:24:51;100662.56;;;11.98;87.69
51468;BME280;37545;45.302;-122.946;2023-09-30T12:27:20;100664.22;;;11.95;88.59
51468;BME280;37545;45.302;-122.946;2023-09-30T12:29:49;100663.34;;;11.93;88.13
51468;BME280;37545;45.302;-122.946;2023-09-30T12:32:18;100667.63;;;11.91;88.17
51468;BME280;37545;45.302;-122.946;2023-09-30T12:34:49;100664.91;;;11.87;88.84
51468;BME280;37545;45.302;-122.946;2023-09-30T12:37:19;100668.38;;;11.87;87.23
51468;BME280;37545;45.302;-122.946;2023-09-30T12:39:48;100674.38;;;11.86;87.30
51468;BME280;37545;45.302;-122.946;2023-09-30T12:42:19;100676.97;;;11.86;87.27